sensor_id;sensor_type;location;lat;lon;timestamp;P1;durP1;ratioP1;P2;durP2;ratioP2
46675;SDS011;32412;51.478;5.694;2023-03-01T00:01:47;10.05;;;5.70;;
46675;SDS011;32412;51.478;5.694;2023-03-01T00:04:13;10.18;;;6.15;;
46675;SDS011;32412;51.478;5.694;2023-03-01T00:06:47;8.80;;;5.47;;
46675;SDS011;32412;51.478;5.694;2023-03-01T00:09:13;9.05;;;5.47;;
46675;SDS011;32412;51.478;5.694;2023-03-01T00:11:40;10.13;;;5.65;;
46675;SDS011;32412;51.478;5.694;2023-03-01T00:14:09;8.38;;;5.63;;
46675;SDS011;32412;51.478;5.694;2023-03-01T00:16:42;9.73;;;5.90;;
46675;SDS011;32412;51.478;5.694;2023-03-01T00:19:13;12.30;;;6.28;;
46675;SDS011;32412;51.478;5.694;2023-03-01T00:21:44;10.30;;;6.13;;
46675;SDS011;32412;51.478;5.694;2023-03-01T00:24:16;9.18;;;5.80;;
46675;SDS011;32412;51.478;5.694;2023-03-01T00:26:42;10.63;;;5.70;;
46675;SDS011;32412;51.478;5.694;2023-03-01T00:29:11;11.73;;;6.10;;
46675;SDS011;32412;51.478;5.694;2023-03-01T00:31:48;15.13;;;6.50;;
46675;SDS011;32412;51.478;5.694;2023-03-01T00:34:22;11.93;;;6.50;;
46675;SDS011;32412;51.478;5.694;2023-03-01T00:36:51;11.35;;;6.28;;
46675;SDS011;32412;51.478;5.694;2023-03-01T00:39:23;10.13;;;6.53;;
46675;SDS011;32412;51.478;5.694;2023-03-01T00:41:51;11.93;;;6.60;;
46675;SDS011;32412;51.478;5.694;2023-03-01T00:44:23;8.95;;;6.05;;
46675;SDS011;32412;51.478;5.694;2023-03-01T00:46:53;9.55;;;5.72;;
46675;SDS011;32412;51.478;5.694;2023-03-01T00:49:28;11.48;;;6.82;;
46675;SDS011;32412;51.478;5.694;2023-03-01T00:51:57;10.70;;;5.60;;
46675;SDS011;32412;51.478;5.694;2023-03-01T00:54:22;9.52;;;5.97;;
46675;SDS011;32412;51.478;5.694;2023-03-01T00:56:48;9.05;;;5.68;;
46675;SDS011;32412;51.478;5.694;2023-03-01T00:59:14;9.32;;;5.50;;
46675;SDS011;32412;51.478;5.694;2023-03-01T01:01:43;10.95;;;5.75;;
46675;SDS011;32412;51.478;5.694;2023-03-01T01:04:09;10.52;;;6.20;;
46675;SDS011;32412;51.478;5.694;2023-03-01T01:06:37;11.23;;;5.90;;
46675;SDS011;32412;51.478;5.694;2023-03-01T01:09:07;11.10;;;6.43;;
46675;SDS011;32412;51.478;5.694;2023-03-01T01:11:48;10.65;;;5.80;;
46675;SDS011;32412;51.478;5.694;2023-03-01T01:14:18;12.82;;;6.13;;
46675;SDS011;32412;51.478;5.694;2023-03-01T01:16:49;9.80;;;5.57;;
46675;SDS011;32412;51.478;5.694;2023-03-01T01:19:17;8.68;;;5.57;;
46675;SDS011;32412;51.478;5.694;2023-03-01T01:21:45;11.52;;;6.15;;
46675;SDS011;32412;51.478;5.694;2023-03-01T01:24:15;12.10;;;5.93;;
46675;SDS011;32412;51.478;5.694;2023-03-01T01:26:40;8.85;;;5.63;;
46675;SDS011;32412;51.478;5.694;2023-03-01T01:29:07;8.50;;;5.72;;
46675;SDS011;32412;51.478;5.694;2023-03-01T01:31:34;10.73;;;5.97;;
46675;SDS011;32412;51.478;5.694;2023-03-01T01:34:03;10.18;;;5.82;;
46675;SDS011;32412;51.478;5.694;2023-03-01T01:36:32;11.32;;;6.28;;
46675;SDS011;32412;51.478;5.694;2023-03-01T01:38:59;8.57;;;5.70;;
46675;SDS011;32412;51.478;5.694;2023-03-01T01:41:28;9.18;;;5.80;;
46675;SDS011;32412;51.478;5.694;2023-03-01T01:44:14;9.68;;;5.88;;
46675;SDS011;32412;51.478;5.694;2023-03-01T01:46:44;10.93;;;6.43;;
46675;SDS011;32412;51.478;5.694;2023-03-01T01:51:55;9.02;;;5.57;;
46675;SDS011;32412;51.478;5.694;2023-03-01T01:57:23;9.60;;;5.32;;
46675;SDS011;32412;51.478;5.694;2023-03-01T01:59:54;10.23;;;5.90;;
46675;SDS011;32412;51.478;5.694;2023-03-01T02:02:24;9.18;;;5.53;;
46675;SDS011;32412;51.478;5.694;2023-03-01T02:04:52;9.48;;;5.93;;
46675;SDS011;32412;51.478;5.694;2023-03-01T02:07:25;9.75;;;5.90;;
46675;SDS011;32412;51.478;5.694;2023-03-01T02:09:51;10.93;;;5.85;;
46675;SDS011;32412;51.478;5.694;2023-03-01T02:12:19;10.43;;;6.05;;
46675;SDS011;32412;51.478;5.694;2023-03-01T02:14:47;8.68;;;4.72;;
46675;SDS011;32412;51.478;5.694;2023-03-01T02:17:14;9.75;;;6.15;;
46675;SDS011;32412;51.478;5.694;2023-03-01T02:22:18;11.27;;;6.13;;
46675;SDS011;32412;51.478;5.694;2023-03-01T02:27:38;13.52;;;6.15;;
46675;SDS011;32412;51.478;5.694;2023-03-01T02:30:18;13.13;;;6.18;;
46675;SDS011;32412;51.478;5.694;2023-03-01T02:32:46;8.10;;;5.50;;
46675;SDS011;32412;51.478;5.694;2023-03-01T02:35:14;10.63;;;6.35;;
46675;SDS011;32412;51.478;5.694;2023-03-01T02:37:42;10.48;;;5.85;;
46675;SDS011;32412;51.478;5.694;2023-03-01T02:40:10;10.25;;;6.63;;
46675;SDS011;32412;51.478;5.694;2023-03-01T02:42:42;9.95;;;5.82;;
46675;SDS011;32412;51.478;5.694;2023-03-01T02:45:33;10.98;;;6.40;;
46675;SDS011;32412;51.478;5.694;2023-03-01T02:47:59;12.13;;;6.22;;
46675;SDS011;32412;51.478;5.694;2023-03-01T02:53:16;11.25;;;5.97;;
46675;SDS011;32412;51.478;5.694;2023-03-01T02:55:51;13.15;;;6.03;;
46675;SDS011;32412;51.478;5.694;2023-03-01T02:58:19;10.38;;;6.25;;
46675;SDS011;32412;51.478;5.694;2023-03-01T03:00:46;12.15;;;6.30;;
46675;SDS011;32412;51.478;5.694;2023-03-01T03:03:17;11.93;;;5.68;;
46675;SDS011;32412;51.478;5.694;2023-03-01T03:05:48;11.23;;;5.72;;
46675;SDS011;32412;51.478;5.694;2023-03-01T03:08:16;9.75;;;5.93;;
46675;SDS011;32412;51.478;5.694;2023-03-01T03:10:51;8.93;;;5.50;;
46675;SDS011;32412;51.478;5.694;2023-03-01T03:13:40;11.05;;;5.75;;
46675;SDS011;32412;51.478;5.694;2023-03-01T03:16:13;11.43;;;5.90;;
46675;SDS011;32412;51.478;5.694;2023-03-01T03:18:39;11.35;;;5.82;;
46675;SDS011;32412;51.478;5.694;2023-03-01T03:21:09;9.50;;;6.13;;
46675;SDS011;32412;51.478;5.694;2023-03-01T03:23:42;9.27;;;5.85;;
46675;SDS011;32412;51.478;5.694;2023-03-01T03:26:13;10.90;;;6.15;;
46675;SDS011;32412;51.478;5.694;2023-03-01T03:28:40;9.75;;;5.75;;
46675;SDS011;32412;51.478;5.694;2023-03-01T03:31:06;11.13;;;6.43;;
46675;SDS011;32412;51.478;5.694;2023-03-01T03:33:38;12.23;;;5.93;;
46675;SDS011;32412;51.478;5.694;2023-03-01T03:36:06;11.50;;;6.47;;
46675;SDS011;32412;51.478;5.694;2023-03-01T03:38:42;12.45;;;6.45;;
46675;SDS011;32412;51.478;5.694;2023-03-01T03:41:10;10.88;;;6.30;;
46675;SDS011;32412;51.478;5.694;2023-03-01T03:43:37;9.23;;;5.70;;
46675;SDS011;32412;51.478;5.694;2023-03-01T03:46:04;11.10;;;6.05;;
46675;SDS011;32412;51.478;5.694;2023-03-01T03:48:33;10.00;;;6.05;;
46675;SDS011;32412;51.478;5.694;2023-03-01T03:51:02;11.00;;;6.53;;
46675;SDS011;32412;51.478;5.694;2023-03-01T03:53:31;11.95;;;6.05;;
46675;SDS011;32412;51.478;5.694;2023-03-01T03:55:57;10.85;;;6.18;;
46675;SDS011;32412;51.478;5.694;2023-03-01T03:58:24;14.20;;;6.45;;
46675;SDS011;32412;51.478;5.694;2023-03-01T04:00:59;13.23;;;6.53;;
46675;SDS011;32412;51.478;5.694;2023-03-01T04:03:30;12.32;;;6.32;;
46675;SDS011;32412;51.478;5.694;2023-03-01T04:06:00;11.95;;;6.40;;
46675;SDS011;32412;51.478;5.694;2023-03-01T04:08:27;10.55;;;6.20;;
46675;SDS011;32412;51.478;5.694;2023-03-01T04:11:00;11.55;;;6.47;;
46675;SDS011;32412;51.478;5.694;2023-03-01T04:13:47;11.87;;;6.90;;
46675;SDS011;32412;51.478;5.694;2023-03-01T04:16:16;11.32;;;6.50;;
46675;SDS011;32412;51.478;5.694;2023-03-01T04:18:42;12.07;;;6.20;;
46675;SDS011;32412;51.478;5.694;2023-03-01T04:21:09;11.55;;;6.50;;
46675;SDS011;32412;51.478;5.694;2023-03-01T04:23:36;9.27;;;5.90;;
46675;SDS011;32412;51.478;5.694;2023-03-01T04:26:02;10.52;;;6.25;;
46675;SDS011;32412;51.478;5.694;2023-03-01T04:28:32;12.57;;;6.43;;
46675;SDS011;32412;51.478;5.694;2023-03-01T04:31:02;12.45;;;6.45;;
46675;SDS011;32412;51.478;5.694;2023-03-01T04:33:42;10.20;;;5.80;;
46675;SDS011;32412;51.478;5.694;2023-03-01T04:36:09;13.20;;;7.07;;
46675;SDS011;32412;51.478;5.694;2023-03-01T04:38:36;12.52;;;6.53;;
46675;SDS011;32412;51.478;5.694;2023-03-01T04:41:07;10.07;;;6.75;;
46675;SDS011;32412;51.478;5.694;2023-03-01T04:43:35;10.43;;;6.30;;
46675;SDS011;32412;51.478;5.694;2023-03-01T04:46:08;11.73;;;6.68;;
46675;SDS011;32412;51.478;5.694;2023-03-01T04:48:36;13.32;;;6.70;;
46675;SDS011;32412;51.478;5.694;2023-03-01T04:51:07;11.13;;;6.38;;
46675;SDS011;32412;51.478;5.694;2023-03-01T04:53:43;15.52;;;6.75;;
46675;SDS011;32412;51.478;5.694;2023-03-01T04:56:41;10.50;;;6.40;;
46675;SDS011;32412;51.478;5.694;2023-03-01T04:59:09;13.25;;;6.72;;
46675;SDS011;32412;51.478;5.694;2023-03-01T05:01:37;12.32;;;6.72;;
46675;SDS011;32412;51.478;5.694;2023-03-01T05:04:14;10.93;;;6.38;;
46675;SDS011;32412;51.478;5.694;2023-03-01T05:06:40;12.07;;;6.85;;
46675;SDS011;32412;51.478;5.694;2023-03-01T05:09:09;12.43;;;6.97;;
46675;SDS011;32412;51.478;5.694;2023-03-01T05:11:36;12.15;;;7.10;;
46675;SDS011;32412;51.478;5.694;2023-03-01T05:14:07;13.40;;;6.70;;
46675;SDS011;32412;51.478;5.694;2023-03-01T05:16:39;12.20;;;6.45;;
46675;SDS011;32412;51.478;5.694;2023-03-01T05:19:13;15.05;;;7.22;;
46675;SDS011;32412;51.478;5.694;2023-03-01T05:21:47;10.05;;;5.68;;
46675;SDS011;32412;51.478;5.694;2023-03-01T05:24:45;14.98;;;6.82;;
46675;SDS011;32412;51.478;5.694;2023-03-01T05:27:11;12.50;;;6.97;;
46675;SDS011;32412;51.478;5.694;2023-03-01T05:29:38;13.68;;;7.22;;
46675;SDS011;32412;51.478;5.694;2023-03-01T05:32:06;13.05;;;7.10;;
46675;SDS011;32412;51.478;5.694;2023-03-01T05:34:35;11.93;;;7.18;;
46675;SDS011;32412;51.478;5.694;2023-03-01T05:37:01;12.63;;;6.95;;
46675;SDS011;32412;51.478;5.694;2023-03-01T05:39:28;14.95;;;7.32;;
46675;SDS011;32412;51.478;5.694;2023-03-01T05:41:57;13.02;;;7.32;;
46675;SDS011;32412;51.478;5.694;2023-03-01T05:44:36;11.68;;;7.20;;
46675;SDS011;32412;51.478;5.694;2023-03-01T05:47:32;12.77;;;7.53;;
46675;SDS011;32412;51.478;5.694;2023-03-01T05:50:01;16.25;;;8.73;;
46675;SDS011;32412;51.478;5.694;2023-03-01T05:52:36;18.63;;;9.50;;
46675;SDS011;32412;51.478;5.694;2023-03-01T05:55:02;17.70;;;9.05;;
46675;SDS011;32412;51.478;5.694;2023-03-01T05:57:29;16.92;;;8.93;;
46675;SDS011;32412;51.478;5.694;2023-03-01T05:59:54;17.63;;;10.35;;
46675;SDS011;32412;51.478;5.694;2023-03-01T06:02:31;22.58;;;12.60;;
46675;SDS011;32412;51.478;5.694;2023-03-01T06:04:57;17.70;;;8.27;;
46675;SDS011;32412;51.478;5.694;2023-03-01T06:07:23;13.32;;;7.72;;
46675;SDS011;32412;51.478;5.694;2023-03-01T06:09:48;14.82;;;8.77;;
46675;SDS011;32412;51.478;5.694;2023-03-01T06:12:14;16.10;;;7.95;;
46675;SDS011;32412;51.478;5.694;2023-03-01T06:14:40;13.32;;;7.68;;
46675;SDS011;32412;51.478;5.694;2023-03-01T06:17:06;15.13;;;8.27;;
46675;SDS011;32412;51.478;5.694;2023-03-01T06:19:31;14.30;;;8.35;;
46675;SDS011;32412;51.478;5.694;2023-03-01T06:21:57;19.48;;;10.95;;
46675;SDS011;32412;51.478;5.694;2023-03-01T06:24:23;24.67;;;16.60;;
46675;SDS011;32412;51.478;5.694;2023-03-01T06:26:54;24.10;;;15.38;;
46675;SDS011;32412;51.478;5.694;2023-03-01T06:29:20;22.58;;;12.25;;
46675;SDS011;32412;51.478;5.694;2023-03-01T06:31:50;15.40;;;9.63;;
46675;SDS011;32412;51.478;5.694;2023-03-01T06:34:16;17.83;;;10.57;;
46675;SDS011;32412;51.478;5.694;2023-03-01T06:36:42;16.20;;;10.73;;
46675;SDS011;32412;51.478;5.694;2023-03-01T06:39:07;15.40;;;9.48;;
46675;SDS011;32412;51.478;5.694;2023-03-01T06:41:34;14.80;;;9.18;;
46675;SDS011;32412;51.478;5.694;2023-03-01T06:43:59;14.85;;;9.48;;
46675;SDS011;32412;51.478;5.694;2023-03-01T06:46:25;17.40;;;10.23;;
46675;SDS011;32412;51.478;5.694;2023-03-01T06:48:51;20.50;;;10.55;;
46675;SDS011;32412;51.478;5.694;2023-03-01T06:51:17;16.00;;;10.20;;
46675;SDS011;32412;51.478;5.694;2023-03-01T06:53:46;17.02;;;10.35;;
46675;SDS011;32412;51.478;5.694;2023-03-01T06:56:18;18.08;;;9.98;;
46675;SDS011;32412;51.478;5.694;2023-03-01T06:58:46;24.10;;;11.82;;
46675;SDS011;32412;51.478;5.694;2023-03-01T07:01:12;26.75;;;15.52;;
46675;SDS011;32412;51.478;5.694;2023-03-01T07:03:38;35.90;;;18.23;;
46675;SDS011;32412;51.478;5.694;2023-03-01T07:06:03;38.38;;;19.70;;
46675;SDS011;32412;51.478;5.694;2023-03-01T07:08:29;43.25;;;21.33;;
46675;SDS011;32412;51.478;5.694;2023-03-01T07:10:55;38.03;;;18.90;;
46675;SDS011;32412;51.478;5.694;2023-03-01T07:13:22;28.25;;;13.98;;
46675;SDS011;32412;51.478;5.694;2023-03-01T07:15:47;22.48;;;11.30;;
46675;SDS011;32412;51.478;5.694;2023-03-01T07:18:13;18.42;;;9.32;;
46675;SDS011;32412;51.478;5.694;2023-03-01T07:20:39;29.60;;;14.13;;
46675;SDS011;32412;51.478;5.694;2023-03-01T07:23:05;28.83;;;13.48;;
46675;SDS011;32412;51.478;5.694;2023-03-01T07:25:31;21.58;;;11.32;;
46675;SDS011;32412;51.478;5.694;2023-03-01T07:27:57;21.15;;;11.35;;
46675;SDS011;32412;51.478;5.694;2023-03-01T07:30:23;17.67;;;9.90;;
46675;SDS011;32412;51.478;5.694;2023-03-01T07:32:51;17.50;;;9.80;;
46675;SDS011;32412;51.478;5.694;2023-03-01T07:35:16;18.15;;;9.18;;
46675;SDS011;32412;51.478;5.694;2023-03-01T07:37:43;15.00;;;8.75;;
46675;SDS011;32412;51.478;5.694;2023-03-01T07:40:09;19.30;;;10.57;;
46675;SDS011;32412;51.478;5.694;2023-03-01T07:42:35;18.05;;;9.13;;
46675;SDS011;32412;51.478;5.694;2023-03-01T07:45:00;15.82;;;9.55;;
46675;SDS011;32412;51.478;5.694;2023-03-01T07:47:26;17.17;;;9.88;;
46675;SDS011;32412;51.478;5.694;2023-03-01T07:49:51;17.02;;;9.73;;
46675;SDS011;32412;51.478;5.694;2023-03-01T07:52:17;16.23;;;8.88;;
46675;SDS011;32412;51.478;5.694;2023-03-01T07:54:43;15.63;;;7.78;;
46675;SDS011;32412;51.478;5.694;2023-03-01T07:57:11;14.82;;;7.95;;
46675;SDS011;32412;51.478;5.694;2023-03-01T07:59:37;16.52;;;7.88;;
46675;SDS011;32412;51.478;5.694;2023-03-01T08:02:03;15.73;;;9.20;;
46675;SDS011;32412;51.478;5.694;2023-03-01T08:04:29;15.93;;;8.27;;
46675;SDS011;32412;51.478;5.694;2023-03-01T08:06:55;15.60;;;7.85;;
46675;SDS011;32412;51.478;5.694;2023-03-01T08:09:21;15.07;;;7.47;;
46675;SDS011;32412;51.478;5.694;2023-03-01T08:11:47;11.15;;;7.43;;
46675;SDS011;32412;51.478;5.694;2023-03-01T08:14:12;13.75;;;7.85;;
46675;SDS011;32412;51.478;5.694;2023-03-01T08:16:38;14.25;;;7.90;;
46675;SDS011;32412;51.478;5.694;2023-03-01T08:19:07;16.45;;;6.95;;
46675;SDS011;32412;51.478;5.694;2023-03-01T08:21:34;14.27;;;7.55;;
46675;SDS011;32412;51.478;5.694;2023-03-01T08:24:01;12.85;;;7.10;;
46675;SDS011;32412;51.478;5.694;2023-03-01T08:26:27;12.32;;;7.70;;
46675;SDS011;32412;51.478;5.694;2023-03-01T08:28:54;12.45;;;6.88;;
46675;SDS011;32412;51.478;5.694;2023-03-01T08:31:21;9.40;;;6.40;;
46675;SDS011;32412;51.478;5.694;2023-03-01T08:33:58;13.35;;;7.38;;
46675;SDS011;32412;51.478;5.694;2023-03-01T08:36:30;17.65;;;7.35;;
46675;SDS011;32412;51.478;5.694;2023-03-01T08:38:57;14.50;;;6.70;;
46675;SDS011;32412;51.478;5.694;2023-03-01T08:41:23;14.35;;;7.13;;
46675;SDS011;32412;51.478;5.694;2023-03-01T08:43:49;16.80;;;6.97;;
46675;SDS011;32412;51.478;5.694;2023-03-01T08:46:15;10.50;;;6.80;;
46675;SDS011;32412;51.478;5.694;2023-03-01T08:48:41;10.00;;;6.45;;
46675;SDS011;32412;51.478;5.694;2023-03-01T08:51:19;11.50;;;6.78;;
46675;SDS011;32412;51.478;5.694;2023-03-01T08:53:45;10.38;;;6.72;;
46675;SDS011;32412;51.478;5.694;2023-03-01T08:56:11;10.00;;;6.80;;
46675;SDS011;32412;51.478;5.694;2023-03-01T08:58:38;10.32;;;6.90;;
46675;SDS011;32412;51.478;5.694;2023-03-01T09:01:07;11.98;;;7.10;;
46675;SDS011;32412;51.478;5.694;2023-03-01T09:03:34;12.20;;;7.22;;
46675;SDS011;32412;51.478;5.694;2023-03-01T09:06:01;12.57;;;6.80;;
46675;SDS011;32412;51.478;5.694;2023-03-01T09:08:28;12.80;;;6.70;;
46675;SDS011;32412;51.478;5.694;2023-03-01T09:10:54;11.38;;;7.03;;
46675;SDS011;32412;51.478;5.694;2023-03-01T09:13:20;11.85;;;5.82;;
46675;SDS011;32412;51.478;5.694;2023-03-01T09:15:48;11.30;;;6.75;;
46675;SDS011;32412;51.478;5.694;2023-03-01T09:18:14;12.15;;;7.18;;
46675;SDS011;32412;51.478;5.694;2023-03-01T09:20:40;11.02;;;6.35;;
46675;SDS011;32412;51.478;5.694;2023-03-01T09:23:06;12.35;;;6.57;;
46675;SDS011;32412;51.478;5.694;2023-03-01T09:25:33;11.85;;;6.72;;
46675;SDS011;32412;51.478;5.694;2023-03-01T09:27:59;13.10;;;6.82;;
46675;SDS011;32412;51.478;5.694;2023-03-01T09:30:25;11.95;;;6.85;;
46675;SDS011;32412;51.478;5.694;2023-03-01T09:32:51;9.98;;;6.40;;
46675;SDS011;32412;51.478;5.694;2023-03-01T09:35:17;12.27;;;6.65;;
46675;SDS011;32412;51.478;5.694;2023-03-01T09:37:45;13.02;;;6.80;;
46675;SDS011;32412;51.478;5.694;2023-03-01T09:40:15;9.48;;;6.63;;
46675;SDS011;32412;51.478;5.694;2023-03-01T09:45:27;10.63;;;6.50;;
46675;SDS011;32412;51.478;5.694;2023-03-01T09:48:06;9.57;;;6.43;;
46675;SDS011;32412;51.478;5.694;2023-03-01T09:50:43;11.38;;;6.85;;
46675;SDS011;32412;51.478;5.694;2023-03-01T09:53:15;15.25;;;7.65;;
46675;SDS011;32412;51.478;5.694;2023-03-01T10:00:53;15.32;;;7.85;;
46675;SDS011;32412;51.478;5.694;2023-03-01T10:03:43;9.52;;;6.80;;
46675;SDS011;32412;51.478;5.694;2023-03-01T10:06:15;15.75;;;6.68;;
46675;SDS011;32412;51.478;5.694;2023-03-01T10:09:00;11.10;;;7.13;;
46675;SDS011;32412;51.478;5.694;2023-03-01T10:11:36;13.38;;;7.40;;
46675;SDS011;32412;51.478;5.694;2023-03-01T10:14:13;10.60;;;7.05;;
46675;SDS011;32412;51.478;5.694;2023-03-01T10:19:32;15.32;;;7.63;;
46675;SDS011;32412;51.478;5.694;2023-03-01T10:22:21;12.73;;;7.22;;
46675;SDS011;32412;51.478;5.694;2023-03-01T10:24:53;12.18;;;7.28;;
46675;SDS011;32412;51.478;5.694;2023-03-01T10:27:24;15.00;;;6.97;;
46675;SDS011;32412;51.478;5.694;2023-03-01T10:32:25;9.68;;;6.50;;
46675;SDS011;32412;51.478;5.694;2023-03-01T10:34:51;11.27;;;6.85;;
46675;SDS011;32412;51.478;5.694;2023-03-01T10:37:18;11.50;;;7.50;;
46675;SDS011;32412;51.478;5.694;2023-03-01T10:40:29;12.88;;;7.18;;
46675;SDS011;32412;51.478;5.694;2023-03-01T10:42:37;10.63;;;6.47;;
46675;SDS011;32412;51.478;5.694;2023-03-01T10:50:38;9.73;;;6.35;;
46675;SDS011;32412;51.478;5.694;2023-03-01T10:53:09;10.60;;;6.63;;
46675;SDS011;32412;51.478;5.694;2023-03-01T10:55:44;8.75;;;5.80;;
46675;SDS011;32412;51.478;5.694;2023-03-01T10:58:20;10.55;;;6.07;;
46675;SDS011;32412;51.478;5.694;2023-03-01T11:03:25;11.25;;;6.38;;
46675;SDS011;32412;51.478;5.694;2023-03-01T11:06:19;8.27;;;5.75;;
46675;SDS011;32412;51.478;5.694;2023-03-01T11:08:48;10.35;;;5.78;;
46675;SDS011;32412;51.478;5.694;2023-03-01T11:13:47;9.38;;;6.30;;
46675;SDS011;32412;51.478;5.694;2023-03-01T11:16:32;9.20;;;5.90;;
46675;SDS011;32412;51.478;5.694;2023-03-01T11:21:35;9.93;;;6.45;;
46675;SDS011;32412;51.478;5.694;2023-03-01T11:24:04;8.20;;;5.50;;
46675;SDS011;32412;51.478;5.694;2023-03-01T11:26:36;10.05;;;5.90;;
46675;SDS011;32412;51.478;5.694;2023-03-01T11:29:06;7.30;;;5.65;;
46675;SDS011;32412;51.478;5.694;2023-03-01T11:31:42;8.75;;;5.72;;
46675;SDS011;32412;51.478;5.694;2023-03-01T11:34:17;11.25;;;6.13;;
46675;SDS011;32412;51.478;5.694;2023-03-01T11:36:51;10.88;;;6.32;;
46675;SDS011;32412;51.478;5.694;2023-03-01T11:44:34;8.85;;;5.57;;
46675;SDS011;32412;51.478;5.694;2023-03-01T11:47:18;10.15;;;5.93;;
46675;SDS011;32412;51.478;5.694;2023-03-01T11:50:15;9.15;;;5.60;;
46675;SDS011;32412;51.478;5.694;2023-03-01T11:58:04;7.38;;;5.50;;
46675;SDS011;32412;51.478;5.694;2023-03-01T12:09:22;8.05;;;5.47;;
46675;SDS011;32412;51.478;5.694;2023-03-01T12:17:31;6.15;;;4.82;;
46675;SDS011;32412;51.478;5.694;2023-03-01T12:26:00;8.27;;;5.28;;
46675;SDS011;32412;51.478;5.694;2023-03-01T12:37:07;7.05;;;5.35;;
46675;SDS011;32412;51.478;5.694;2023-03-01T12:39:59;7.22;;;5.47;;
46675;SDS011;32412;51.478;5.694;2023-03-01T12:48:06;7.20;;;5.32;;
46675;SDS011;32412;51.478;5.694;2023-03-01T12:50:43;8.40;;;5.55;;
46675;SDS011;32412;51.478;5.694;2023-03-01T12:55:50;6.30;;;5.15;;
46675;SDS011;32412;51.478;5.694;2023-03-01T13:01:36;8.52;;;5.88;;
46675;SDS011;32412;51.478;5.694;2023-03-01T13:07:28;8.70;;;5.20;;
46675;SDS011;32412;51.478;5.694;2023-03-01T13:10:04;6.68;;;4.93;;
46675;SDS011;32412;51.478;5.694;2023-03-01T13:17:49;8.07;;;5.35;;
46675;SDS011;32412;51.478;5.694;2023-03-01T13:20:20;7.80;;;5.38;;
46675;SDS011;32412;51.478;5.694;2023-03-01T13:23:03;10.00;;;7.15;;
46675;SDS011;32412;51.478;5.694;2023-03-01T13:25:32;8.25;;;5.70;;
46675;SDS011;32412;51.478;5.694;2023-03-01T13:31:01;8.45;;;4.93;;
46675;SDS011;32412;51.478;5.694;2023-03-01T13:41:11;8.00;;;5.22;;
46675;SDS011;32412;51.478;5.694;2023-03-01T13:43:42;7.97;;;5.63;;
46675;SDS011;32412;51.478;5.694;2023-03-01T13:46:14;8.85;;;5.55;;
46675;SDS011;32412;51.478;5.694;2023-03-01T13:48:45;9.10;;;5.47;;
46675;SDS011;32412;51.478;5.694;2023-03-01T13:51:15;9.02;;;5.53;;
46675;SDS011;32412;51.478;5.694;2023-03-01T13:53:45;8.82;;;5.40;;
46675;SDS011;32412;51.478;5.694;2023-03-01T13:56:17;7.60;;;5.35;;
46675;SDS011;32412;51.478;5.694;2023-03-01T13:58:54;8.27;;;5.78;;
46675;SDS011;32412;51.478;5.694;2023-03-01T14:03:56;8.38;;;5.32;;
46675;SDS011;32412;51.478;5.694;2023-03-01T14:06:32;31.88;;;7.93;;
46675;SDS011;32412;51.478;5.694;2023-03-01T14:09:05;9.35;;;5.82;;
46675;SDS011;32412;51.478;5.694;2023-03-01T14:14:45;7.57;;;5.97;;
46675;SDS011;32412;51.478;5.694;2023-03-01T14:17:01;7.85;;;5.68;;
46675;SDS011;32412;51.478;5.694;2023-03-01T14:19:56;7.15;;;5.28;;
46675;SDS011;32412;51.478;5.694;2023-03-01T14:22:25;9.93;;;5.55;;
46675;SDS011;32412;51.478;5.694;2023-03-01T14:25:02;7.15;;;5.50;;
46675;SDS011;32412;51.478;5.694;2023-03-01T14:27:40;7.70;;;5.43;;
46675;SDS011;32412;51.478;5.694;2023-03-01T14:32:56;10.30;;;5.78;;
46675;SDS011;32412;51.478;5.694;2023-03-01T14:35:27;8.30;;;5.65;;
46675;SDS011;32412;51.478;5.694;2023-03-01T14:38:01;11.30;;;5.82;;
46675;SDS011;32412;51.478;5.694;2023-03-01T14:42:58;8.00;;;5.63;;
46675;SDS011;32412;51.478;5.694;2023-03-01T14:45:26;7.68;;;5.22;;
46675;SDS011;32412;51.478;5.694;2023-03-01T14:47:54;9.52;;;5.60;;
46675;SDS011;32412;51.478;5.694;2023-03-01T14:50:28;9.25;;;6.60;;
46675;SDS011;32412;51.478;5.694;2023-03-01T14:53:02;9.07;;;6.50;;
46675;SDS011;32412;51.478;5.694;2023-03-01T14:55:34;10.07;;;6.20;;
46675;SDS011;32412;51.478;5.694;2023-03-01T14:58:08;7.65;;;5.72;;
46675;SDS011;32412;51.478;5.694;2023-03-01T15:00:37;8.13;;;5.78;;
46675;SDS011;32412;51.478;5.694;2023-03-01T15:03:46;9.30;;;6.55;;
46675;SDS011;32412;51.478;5.694;2023-03-01T15:05:56;8.15;;;5.70;;
46675;SDS011;32412;51.478;5.694;2023-03-01T15:08:23;11.40;;;6.20;;
46675;SDS011;32412;51.478;5.694;2023-03-01T15:13:41;10.65;;;6.55;;
46675;SDS011;32412;51.478;5.694;2023-03-01T15:16:07;10.35;;;6.82;;
46675;SDS011;32412;51.478;5.694;2023-03-01T15:18:35;10.35;;;6.22;;
46675;SDS011;32412;51.478;5.694;2023-03-01T15:21:06;11.55;;;6.80;;
46675;SDS011;32412;51.478;5.694;2023-03-01T15:23:34;15.20;;;6.25;;
46675;SDS011;32412;51.478;5.694;2023-03-01T15:26:02;11.63;;;6.70;;
46675;SDS011;32412;51.478;5.694;2023-03-01T15:28:33;10.18;;;6.35;;
46675;SDS011;32412;51.478;5.694;2023-03-01T15:31:18;9.70;;;6.63;;
46675;SDS011;32412;51.478;5.694;2023-03-01T15:33:46;13.00;;;7.25;;
46675;SDS011;32412;51.478;5.694;2023-03-01T15:36:32;9.80;;;5.93;;
46675;SDS011;32412;51.478;5.694;2023-03-01T15:39:22;10.43;;;6.50;;
46675;SDS011;32412;51.478;5.694;2023-03-01T15:42:02;10.48;;;6.40;;
46675;SDS011;32412;51.478;5.694;2023-03-01T15:44:34;11.00;;;6.40;;
46675;SDS011;32412;51.478;5.694;2023-03-01T15:47:02;11.32;;;6.35;;
46675;SDS011;32412;51.478;5.694;2023-03-01T15:49:46;10.95;;;6.22;;
46675;SDS011;32412;51.478;5.694;2023-03-01T15:52:13;9.40;;;6.20;;
46675;SDS011;32412;51.478;5.694;2023-03-01T15:54:53;9.25;;;6.53;;
46675;SDS011;32412;51.478;5.694;2023-03-01T15:57:23;11.82;;;6.78;;
46675;SDS011;32412;51.478;5.694;2023-03-01T15:59:48;9.35;;;6.13;;
46675;SDS011;32412;51.478;5.694;2023-03-01T16:02:14;9.18;;;5.82;;
46675;SDS011;32412;51.478;5.694;2023-03-01T16:04:40;9.75;;;6.78;;
46675;SDS011;32412;51.478;5.694;2023-03-01T16:07:06;9.60;;;6.68;;
46675;SDS011;32412;51.478;5.694;2023-03-01T16:09:34;13.13;;;7.20;;
46675;SDS011;32412;51.478;5.694;2023-03-01T16:11:59;11.52;;;7.20;;
46675;SDS011;32412;51.478;5.694;2023-03-01T16:14:26;11.13;;;7.47;;
46675;SDS011;32412;51.478;5.694;2023-03-01T16:16:52;12.05;;;7.10;;
46675;SDS011;32412;51.478;5.694;2023-03-01T16:19:18;12.77;;;6.88;;
46675;SDS011;32412;51.478;5.694;2023-03-01T16:21:44;9.88;;;6.60;;
46675;SDS011;32412;51.478;5.694;2023-03-01T16:24:11;10.07;;;7.10;;
46675;SDS011;32412;51.478;5.694;2023-03-01T16:26:38;11.43;;;7.65;;
46675;SDS011;32412;51.478;5.694;2023-03-01T16:29:03;12.27;;;7.95;;
46675;SDS011;32412;51.478;5.694;2023-03-01T16:31:29;12.73;;;7.78;;
46675;SDS011;32412;51.478;5.694;2023-03-01T16:33:56;12.07;;;7.25;;
46675;SDS011;32412;51.478;5.694;2023-03-01T16:36:23;12.38;;;7.88;;
46675;SDS011;32412;51.478;5.694;2023-03-01T16:38:51;10.48;;;6.75;;
46675;SDS011;32412;51.478;5.694;2023-03-01T16:41:18;10.32;;;7.05;;
46675;SDS011;32412;51.478;5.694;2023-03-01T16:43:45;15.25;;;7.68;;
46675;SDS011;32412;51.478;5.694;2023-03-01T16:46:12;16.33;;;7.07;;
46675;SDS011;32412;51.478;5.694;2023-03-01T16:48:39;10.43;;;7.25;;
46675;SDS011;32412;51.478;5.694;2023-03-01T16:51:05;11.35;;;6.80;;
46675;SDS011;32412;51.478;5.694;2023-03-01T16:53:32;12.88;;;6.57;;
46675;SDS011;32412;51.478;5.694;2023-03-01T16:56:01;10.60;;;7.25;;
46675;SDS011;32412;51.478;5.694;2023-03-01T16:58:27;14.30;;;7.97;;
46675;SDS011;32412;51.478;5.694;2023-03-01T17:00:53;15.75;;;9.38;;